Impacts METAR Board INFO
IDs:

KBWI - Baltimore-Washington, MD, US

Updated at: 0229 UTC 17 Dec 2017
Potential Impact None Slight Moderate High
Time16/14Z 16/15Z 16/16Z 16/17Z 16/18Z 16/19Z 16/20Z 16/21Z 16/22Z 16/23Z 17/00Z 17/01Z 17/02Z
VIS10 10 10 10 10 10 10 10 10 10 10 10 10
CIG-- -- -- -- -- -- -- -- -- -- -- -- --
CoverFEWFEWFEWFEWSCTSCTSCTFEWFEWCLRCLRCLRCLR
FltCatVFRVFRVFRVFRVFRVFRVFRVFRVFRVFRVFRVFRVFR
WX--------------------------
WDir23022021022020023023023020002200260
WSpd7 3 6 12 9 11 9 8 4 0 3 0 3
WGst-- -- 15 19 -- 22 -- -- -- -- -- -- --
Raw hourly METARs
KBWI 161354Z 23007KT 10SM FEW060 FEW250 M01/M05 A3013 RMK AO2 SLP205 T10111050 $
KBWI 161454Z 22003KT 10SM FEW110 01/M05 A3015 RMK AO2 SLP211 T00111050 51012 $
KBWI 161554Z 21006G15KT 10SM FEW110 FEW250 03/M05 A3013 RMK AO2 SLP204 T00331050 $
KBWI 161654Z 22012G19KT 10SM FEW150 05/M05 A3009 RMK AO2 SLP191 T00501050 $
KBWI 161754Z 20009KT 10SM FEW030 SCT150 06/M05 A3008 RMK AO2 SLP187 T00611050 10061 21033 56024 $
KBWI 161854Z 23011G22KT 10SM SCT060 SCT150 07/M06 A3006 RMK AO2 SLP181 T00671056 $
KBWI 161954Z 23009KT 10SM FEW060 SCT100 07/M05 A3006 RMK AO2 SLP182 T00721050 $
KBWI 162054Z 23008KT 10SM FEW100 07/M05 A3006 RMK AO2 SLP180 T00721050 56007 $
KBWI 162154Z 20004KT 10SM FEW100 06/M05 A3008 RMK AO2 SLP188 T00561050 $
KBWI 162254Z 00000KT 10SM CLR 04/M05 A3012 RMK AO2 SLP199 T00441050 $
KBWI 162354Z 22003KT 10SM CLR 03/M05 A3014 RMK AO2 SLP208 T00331050 10078 20033 53028 $
KBWI 170054Z 00000KT 10SM CLR 01/M05 A3015 RMK AO2 SLP211 T00111050 $
KBWI 170154Z 26003KT 10SM CLR M01/M04 A3016 RMK AO2 SLP215 T10111044 $